createdAt,value
2022-12-11T00:02:21.469Z,964.95
2022-12-11T00:07:52.938Z,964.99
2022-12-11T00:13:24.589Z,965.04
2022-12-11T00:18:56.216Z,965.2
2022-12-11T00:24:27.904Z,965.18
2022-12-11T00:29:59.794Z,965.41
2022-12-11T00:35:31.693Z,965.6
2022-12-11T00:41:09.798Z,965.81
2022-12-11T00:46:41.217Z,965.82
2022-12-11T00:52:13.165Z,966.07
2022-12-11T00:57:44.756Z,966.26
2022-12-11T01:03:16.547Z,966.38
2022-12-11T01:08:48.825Z,966.65
2022-12-11T01:14:20.134Z,966.7
2022-12-11T01:19:51.866Z,966.57
2022-12-11T01:25:23.797Z,966.89
2022-12-11T01:30:55.549Z,966.89
2022-12-11T01:36:27.003Z,967.11
2022-12-11T01:42:04.976Z,966.87
2022-12-11T01:47:36.685Z,966.9
2022-12-11T01:53:08.425Z,966.85
2022-12-11T01:58:40.050Z,966.77
2022-12-11T02:04:13.542Z,966.71
2022-12-11T02:09:43.556Z,966.77
2022-12-11T02:15:15.312Z,966.84
2022-12-11T02:20:47.136Z,966.8
2022-12-11T02:26:18.512Z,966.55
2022-12-11T02:31:50.489Z,966.78
2022-12-11T02:37:22.278Z,966.55
2022-12-11T02:43:00.316Z,966.82
2022-12-11T02:48:32.015Z,967.09
2022-12-11T02:54:03.526Z,967.13
2022-12-11T02:59:35.301Z,967.25
2022-12-11T03:05:07.212Z,967.2
2022-12-11T03:10:38.741Z,967.28
2022-12-11T03:16:11.044Z,967.11
2022-12-11T03:21:42.901Z,967.0
2022-12-11T03:27:14.235Z,967.0
2022-12-11T03:32:45.783Z,967.27
2022-12-11T03:38:17.537Z,966.96
2022-12-11T03:43:53.580Z,966.78
2022-12-11T03:49:25.431Z,966.83
2022-12-11T03:54:57.141Z,966.84
2022-12-11T04:00:28.757Z,966.93
2022-12-11T04:06:00.866Z,966.63
2022-12-11T04:11:33.221Z,966.67
2022-12-11T04:17:03.918Z,966.4
2022-12-11T04:22:35.600Z,966.26
2022-12-11T04:28:07.448Z,966.23
2022-12-11T04:33:39.615Z,965.06
2022-12-11T04:39:10.814Z,964.24
2022-12-11T04:44:47.003Z,964.54
2022-12-11T04:50:18.736Z,964.84
2022-12-11T04:55:50.744Z,965.74
2022-12-11T05:01:21.937Z,966.55
2022-12-11T05:06:53.540Z,965.64
2022-12-11T05:12:25.328Z,965.55
2022-12-11T05:17:57.065Z,966.38
2022-12-11T05:23:28.690Z,966.45
2022-12-11T05:29:00.429Z,965.78
2022-12-11T05:34:32.162Z,965.65
2022-12-11T05:40:03.942Z,965.48
2022-12-11T05:45:40.016Z,965.22
2022-12-11T05:51:11.782Z,964.99
2022-12-11T05:56:43.405Z,964.57
2022-12-11T06:02:15.735Z,964.17
2022-12-11T06:07:46.994Z,964.0
2022-12-11T06:13:18.728Z,963.68
2022-12-11T06:18:50.451Z,963.45
2022-12-11T06:24:22.168Z,963.23
2022-12-11T06:29:53.878Z,963.31
2022-12-11T06:35:25.592Z,963.3
2022-12-11T06:40:57.355Z,963.07
2022-12-11T06:46:33.423Z,963.03
2022-12-11T06:52:05.232Z,962.9
2022-12-11T06:57:37.249Z,963.08
2022-12-11T07:03:08.676Z,963.12
2022-12-11T07:08:40.411Z,963.35
2022-12-11T07:14:12.160Z,963.42
2022-12-11T07:19:44.013Z,963.93
2022-12-11T07:25:15.510Z,964.28
2022-12-11T07:30:47.187Z,964.49
2022-12-11T07:36:18.947Z,964.87
2022-12-11T07:41:50.656Z,965.07
2022-12-11T07:47:26.783Z,965.45
2022-12-11T07:52:58.440Z,965.61
2022-12-11T07:58:30.228Z,965.44
2022-12-11T08:04:01.821Z,965.83
2022-12-11T08:09:33.616Z,965.78
2022-12-11T08:15:05.483Z,966.14
2022-12-11T08:20:37.277Z,965.58
2022-12-11T08:26:08.826Z,966.3
2022-12-11T08:31:40.576Z,966.38
2022-12-11T08:37:12.438Z,966.2
2022-12-11T08:42:44.104Z,965.91
2022-12-11T08:48:22.232Z,966.06
2022-12-11T08:53:54.117Z,965.83
2022-12-11T08:59:25.719Z,966.67
2022-12-11T09:04:57.453Z,966.51
2022-12-11T09:10:29.180Z,966.63
2022-12-11T09:16:01.698Z,966.43
2022-12-11T09:21:32.646Z,966.48
2022-12-11T09:27:04.341Z,967.01
2022-12-11T09:32:35.916Z,967.39
2022-12-11T09:38:07.898Z,967.16
2022-12-11T09:43:39.711Z,967.42
2022-12-11T09:49:17.524Z,967.03
2022-12-11T09:54:49.278Z,966.24
2022-12-11T10:00:20.885Z,966.63
2022-12-11T10:05:52.777Z,967.01
2022-12-11T10:11:24.396Z,966.95
2022-12-11T10:16:56.245Z,967.68
2022-12-11T10:22:27.757Z,967.62
2022-12-11T10:27:59.480Z,967.23
2022-12-11T10:33:31.261Z,967.14
2022-12-11T10:39:03.218Z,967.62
2022-12-11T10:44:34.579Z,967.15
2022-12-11T10:50:10.874Z,967.8
2022-12-11T10:55:42.617Z,967.29
2022-12-11T11:01:14.651Z,966.61
2022-12-11T11:06:46.073Z,967.46
2022-12-11T11:12:18.080Z,967.01
2022-12-11T11:17:56.685Z,967.0
2022-12-11T11:23:21.148Z,966.9
2022-12-11T11:28:52.969Z,966.59
2022-12-11T11:34:24.728Z,967.41
2022-12-11T11:39:56.797Z,967.96
2022-12-11T11:45:28.448Z,967.6
2022-12-11T11:51:08.716Z,967.97
2022-12-11T11:56:40.533Z,967.22
2022-12-11T12:02:12.344Z,966.18
2022-12-11T12:07:44.253Z,967.29
2022-12-11T12:13:50.541Z,967.75
2022-12-11T12:18:47.153Z,966.97
2022-12-11T12:24:18.870Z,967.61
2022-12-11T12:29:50.657Z,967.62
2022-12-11T12:35:22.373Z,967.44
2022-12-11T12:40:54.053Z,967.42
2022-12-11T12:46:25.751Z,967.84
2022-12-11T12:52:01.910Z,967.41
2022-12-11T12:57:33.648Z,967.41
2022-12-11T13:03:05.512Z,967.03
2022-12-11T13:08:37.360Z,967.31
2022-12-11T13:14:09.297Z,966.82
2022-12-11T13:19:43.592Z,966.18
2022-12-11T13:25:13.388Z,967.18
2022-12-11T13:30:44.049Z,966.83
2022-12-11T13:36:25.140Z,966.81
2022-12-11T13:41:47.990Z,967.37
2022-12-11T13:47:19.500Z,967.42
2022-12-11T13:52:55.769Z,967.46
2022-12-11T13:58:27.073Z,967.48
2022-12-11T14:03:59.198Z,967.53
2022-12-11T14:09:31.121Z,967.49
2022-12-11T14:15:03.118Z,967.19
2022-12-11T14:20:34.417Z,966.49
2022-12-11T14:26:05.918Z,967.16
2022-12-11T14:31:37.859Z,967.34
2022-12-11T14:37:09.401Z,966.71
2022-12-11T14:42:41.321Z,967.56
2022-12-11T14:48:12.776Z,967.36
2022-12-11T14:53:51.048Z,967.46
2022-12-11T14:59:32.457Z,967.58
2022-12-11T15:04:54.590Z,967.42
2022-12-11T15:10:26.050Z,967.4
2022-12-11T15:15:58.015Z,967.61
2022-12-11T15:21:29.521Z,967.68
2022-12-11T15:27:01.302Z,967.24
2022-12-11T15:32:33.101Z,967.16
2022-12-11T15:38:05.456Z,967.31
2022-12-11T15:43:36.618Z,967.23
2022-12-11T15:49:08.401Z,967.03
2022-12-11T15:54:44.379Z,967.02
2022-12-11T16:00:16.777Z,966.88
2022-12-11T16:05:48.046Z,967.37
2022-12-11T16:11:20.056Z,967.44
2022-12-11T16:16:51.941Z,967.11
2022-12-11T16:22:23.185Z,967.17
2022-12-11T16:27:54.876Z,966.83
2022-12-11T16:33:26.918Z,966.9
2022-12-11T16:38:58.516Z,966.74
2022-12-11T16:44:30.026Z,966.61
2022-12-11T16:50:01.743Z,966.57
2022-12-11T16:55:38.136Z,966.55
2022-12-11T17:01:09.733Z,966.07
2022-12-11T17:06:41.340Z,966.28
2022-12-11T17:12:13.735Z,966.05
2022-12-11T17:17:45.022Z,966.05
2022-12-11T17:23:16.402Z,966.04
2022-12-11T17:28:48.416Z,966.03
2022-12-11T17:34:20.170Z,966.3
2022-12-11T17:39:52.184Z,966.31
2022-12-11T17:45:23.479Z,966.11
2022-12-11T17:50:54.987Z,966.06
2022-12-11T17:56:31.407Z,965.98
2022-12-11T18:02:03.088Z,966.01
2022-12-11T18:07:34.586Z,965.7
2022-12-11T18:13:06.590Z,965.55
2022-12-11T18:18:38.047Z,965.38
2022-12-11T18:24:09.926Z,965.37
2022-12-11T18:29:41.688Z,965.05
2022-12-11T18:35:14.251Z,964.68
2022-12-11T18:40:45.328Z,964.42
2022-12-11T18:46:17.206Z,964.29
2022-12-11T18:51:48.741Z,964.03
2022-12-11T18:57:24.624Z,963.89
2022-12-11T19:02:56.576Z,963.68
2022-12-11T19:08:28.218Z,963.74
2022-12-11T19:14:00.397Z,963.65
2022-12-11T19:19:31.480Z,963.61
2022-12-11T19:25:03.232Z,963.16
2022-12-11T19:30:35.401Z,962.92
2022-12-11T19:36:06.657Z,963.05
2022-12-11T19:41:38.672Z,962.94
2022-12-11T19:47:10.380Z,962.86
2022-12-11T19:52:47.024Z,962.82
2022-12-11T19:58:17.878Z,962.69
2022-12-11T20:03:49.573Z,962.87
2022-12-11T20:09:21.559Z,963.15
2022-12-11T20:14:53.180Z,963.57
2022-12-11T20:20:24.819Z,963.77
2022-12-11T20:25:59.696Z,963.86
2022-12-11T20:31:28.594Z,964.07
2022-12-11T20:36:59.974Z,964.47
2022-12-11T20:42:31.837Z,964.7
2022-12-11T20:48:03.622Z,964.67
2022-12-11T20:53:35.213Z,964.83
2022-12-11T20:59:13.329Z,964.9
2022-12-11T21:04:45.243Z,965.14
2022-12-11T21:10:17.116Z,965.19
2022-12-11T21:15:48.469Z,965.16
2022-12-11T21:21:20.481Z,965.34
2022-12-11T21:26:52.512Z,965.29
2022-12-11T21:32:23.673Z,965.48
2022-12-11T21:37:55.532Z,965.56
2022-12-11T21:43:27.171Z,964.85
2022-12-11T21:48:58.817Z,965.09
2022-12-11T21:54:30.788Z,965.17
2022-12-11T22:00:08.653Z,965.22
2022-12-11T22:05:40.909Z,965.53
2022-12-11T22:11:12.240Z,964.85
2022-12-11T22:16:43.981Z,964.79
2022-12-11T22:22:16.144Z,965.29
2022-12-11T22:27:47.400Z,965.56
2022-12-11T22:33:19.200Z,965.61
2022-12-11T22:38:50.561Z,965.36
2022-12-11T22:44:22.356Z,965.67
2022-12-11T22:49:54.065Z,965.14
2022-12-11T22:55:25.956Z,965.08
2022-12-11T23:01:03.689Z,965.54
2022-12-11T23:06:33.724Z,965.78
2022-12-11T23:12:05.297Z,965.47
2022-12-11T23:17:37.084Z,965.71
2022-12-11T23:23:08.882Z,966.0
2022-12-11T23:28:40.640Z,966.11
2022-12-11T23:34:12.302Z,966.16
2022-12-11T23:39:44.203Z,966.2
2022-12-11T23:45:16.346Z,966.03
2022-12-11T23:50:47.621Z,965.84
2022-12-11T23:56:19.228Z,966.1
